sensor_id;sensor_type;location;lat;lon;timestamp;pressure;altitude;pressure_sealevel;temperature;humidity
46323;BME280;32044;52.386;13.278;2022-07-06T00:00:53;46284.72;;;-141.84;49.36
46323;BME280;32044;52.386;13.278;2022-07-06T00:03:18;46243.66;;;-141.84;49.26
46323;BME280;32044;52.386;13.278;2022-07-06T00:05:43;46249.53;;;-141.84;49.67
46323;BME280;32044;52.386;13.278;2022-07-06T00:08:09;46290.59;;;-141.84;49.77
46323;BME280;32044;52.386;13.278;2022-07-06T00:10:34;46257.34;;;-141.84;50.14
46323;BME280;32044;52.386;13.278;2022-07-06T00:12:59;46271.03;;;-141.84;50.45
46323;BME280;32044;52.386;13.278;2022-07-06T00:15:24;46257.34;;;-141.84;50.66
46323;BME280;32044;52.386;13.278;2022-07-06T00:17:49;46273.00;;;-141.84;50.50
46323;BME280;32044;52.386;13.278;2022-07-06T00:20:14;46247.56;;;-141.84;50.73
46323;BME280;32044;52.386;13.278;2022-07-06T00:22:40;46245.63;;;-141.84;51.09
46323;BME280;32044;52.386;13.278;2022-07-06T00:25:05;46265.16;;;-141.84;51.28
46323;BME280;32044;52.386;13.278;2022-07-06T00:27:30;46255.41;;;-141.84;51.51
46323;BME280;32044;52.386;13.278;2022-07-06T00:29:55;46261.25;;;-141.84;51.74
46323;BME280;32044;52.386;13.278;2022-07-06T00:32:20;46259.31;;;-141.84;51.94
46323;BME280;32044;52.386;13.278;2022-07-06T00:34:46;46292.53;;;-141.84;51.83
46323;BME280;32044;52.386;13.278;2022-07-06T00:37:11;46249.53;;;-141.84;51.18
46323;BME280;32044;52.386;13.278;2022-07-06T00:39:36;46280.81;;;-141.84;51.50
46323;BME280;32044;52.386;13.278;2022-07-06T00:42:01;46245.63;;;-141.84;51.58
46323;BME280;32044;52.386;13.278;2022-07-06T00:44:27;46243.66;;;-141.84;51.80
46323;BME280;32044;52.386;13.278;2022-07-06T00:46:52;46257.34;;;-141.84;51.30
46323;BME280;32044;52.386;13.278;2022-07-06T00:49:17;46271.03;;;-141.84;51.47
46323;BME280;32044;52.386;13.278;2022-07-06T00:52:01;46257.34;;;-141.84;51.56
46323;BME280;32044;52.386;13.278;2022-07-06T00:54:27;46218.25;;;-141.84;51.04
46323;BME280;32044;52.386;13.278;2022-07-06T00:56:53;46265.16;;;-141.84;51.66
46323;BME280;32044;52.386;13.278;2022-07-06T00:59:18;46312.09;;;-141.84;nan
46323;BME280;32044;52.386;13.278;2022-07-06T01:01:44;46218.25;;;-141.84;51.57
46323;BME280;32044;52.386;13.278;2022-07-06T01:04:09;46269.09;;;-141.84;51.89
46323;BME280;32044;52.386;13.278;2022-07-06T01:06:34;46286.69;;;-141.84;52.03
46323;BME280;32044;52.386;13.278;2022-07-06T01:08:59;46261.25;;;-141.84;52.12
46323;BME280;32044;52.386;13.278;2022-07-06T01:11:25;46235.84;;;-141.84;51.81
46323;BME280;32044;52.386;13.278;2022-07-06T01:13:50;46261.25;;;-141.84;52.43
46323;BME280;32044;52.386;13.278;2022-07-06T01:16:16;46282.75;;;-141.84;52.56
46323;BME280;32044;52.386;13.278;2022-07-06T01:18:41;46261.25;;;-141.84;52.68
46323;BME280;32044;52.386;13.278;2022-07-06T01:21:12;46265.16;;;-141.84;52.63
46323;BME280;32044;52.386;13.278;2022-07-06T01:23:39;46253.44;;;-141.84;51.89
46323;BME280;32044;52.386;13.278;2022-07-06T01:26:04;46245.63;;;-141.84;52.65
46323;BME280;32044;52.386;13.278;2022-07-06T01:28:29;46243.66;;;-141.84;53.09
46323;BME280;32044;52.386;13.278;2022-07-06T01:30:54;46235.84;;;-141.84;53.27
46323;BME280;32044;52.386;13.278;2022-07-06T01:33:19;46296.44;;;-141.84;53.11
46323;BME280;32044;52.386;13.278;2022-07-06T01:35:45;46269.09;;;-141.84;53.65
46323;BME280;32044;52.386;13.278;2022-07-06T01:38:10;46245.63;;;-141.84;54.03
46323;BME280;32044;52.386;13.278;2022-07-06T01:40:35;46237.78;;;-141.84;54.74
46323;BME280;32044;52.386;13.278;2022-07-06T01:43:00;46288.63;;;-141.84;54.72
46323;BME280;32044;52.386;13.278;2022-07-06T01:45:25;46265.16;;;-141.84;54.38
46323;BME280;32044;52.386;13.278;2022-07-06T01:47:50;46296.44;;;-141.84;53.93
46323;BME280;32044;52.386;13.278;2022-07-06T01:50:16;46284.72;;;-141.84;54.41
46323;BME280;32044;52.386;13.278;2022-07-06T01:52:41;46276.91;;;-141.84;54.96
46323;BME280;32044;52.386;13.278;2022-07-06T01:55:06;46233.88;;;-141.84;54.86
46323;BME280;32044;52.386;13.278;2022-07-06T01:57:31;46265.16;;;-141.84;54.60
46323;BME280;32044;52.386;13.278;2022-07-06T01:59:56;46253.44;;;-141.84;55.44
46323;BME280;32044;52.386;13.278;2022-07-06T02:02:22;46257.34;;;-141.84;55.63
46323;BME280;32044;52.386;13.278;2022-07-06T02:04:47;46265.16;;;-141.84;55.87
46323;BME280;32044;52.386;13.278;2022-07-06T02:07:12;46218.25;;;-141.84;56.09
46323;BME280;32044;52.386;13.278;2022-07-06T02:09:37;46200.66;;;-141.84;56.01
46323;BME280;32044;52.386;13.278;2022-07-06T02:12:02;46298.41;;;-141.84;55.64
46323;BME280;32044;52.386;13.278;2022-07-06T02:14:28;46278.84;;;-141.84;55.91
46323;BME280;32044;52.386;13.278;2022-07-06T02:16:53;46267.13;;;-141.84;56.59
46323;BME280;32044;52.386;13.278;2022-07-06T02:19:18;46261.25;;;-141.84;57.01
46323;BME280;32044;52.386;13.278;2022-07-06T02:21:43;46251.47;;;-141.84;57.38
46323;BME280;32044;52.386;13.278;2022-07-06T02:24:08;46296.44;;;-141.84;57.74
46323;BME280;32044;52.386;13.278;2022-07-06T02:26:33;46300.38;;;-141.84;58.39
46323;BME280;32044;52.386;13.278;2022-07-06T02:28:59;46274.94;;;-141.84;58.52
46323;BME280;32044;52.386;13.278;2022-07-06T02:31:24;46296.44;;;-141.84;58.63
46323;BME280;32044;52.386;13.278;2022-07-06T02:33:49;46280.81;;;-141.84;58.50
46323;BME280;32044;52.386;13.278;2022-07-06T02:36:14;46273.00;;;-141.84;58.53
46323;BME280;32044;52.386;13.278;2022-07-06T02:38:39;46271.03;;;-141.84;58.91
46323;BME280;32044;52.386;13.278;2022-07-06T02:41:04;46269.09;;;-141.84;58.73
46323;BME280;32044;52.386;13.278;2022-07-06T02:43:30;46302.31;;;-141.84;58.62
46323;BME280;32044;52.386;13.278;2022-07-06T02:45:55;46292.53;;;-141.84;58.28
46323;BME280;32044;52.386;13.278;2022-07-06T02:48:20;46282.75;;;-141.84;58.45
46323;BME280;32044;52.386;13.278;2022-07-06T02:50:46;46294.50;;;-141.84;58.48
46323;BME280;32044;52.386;13.278;2022-07-06T02:53:11;46290.59;;;-141.84;58.40
46323;BME280;32044;52.386;13.278;2022-07-06T02:55:37;46267.13;;;-141.84;58.51
46323;BME280;32044;52.386;13.278;2022-07-06T02:58:02;46304.28;;;-141.84;57.97
46323;BME280;32044;52.386;13.278;2022-07-06T03:00:27;46265.16;;;-141.84;58.03
46323;BME280;32044;52.386;13.278;2022-07-06T03:02:52;46280.81;;;-141.84;57.65
46323;BME280;32044;52.386;13.278;2022-07-06T03:05:17;46247.56;;;-141.84;57.90
46323;BME280;32044;52.386;13.278;2022-07-06T03:07:42;46265.16;;;-141.84;59.18
46323;BME280;32044;52.386;13.278;2022-07-06T03:10:08;46261.25;;;-141.84;59.98
46323;BME280;32044;52.386;13.278;2022-07-06T03:12:33;46280.81;;;-141.84;60.58
46323;BME280;32044;52.386;13.278;2022-07-06T03:14:58;46306.22;;;-141.84;61.00
46323;BME280;32044;52.386;13.278;2022-07-06T03:17:23;46278.84;;;-141.84;61.47
46323;BME280;32044;52.386;13.278;2022-07-06T03:19:48;46257.34;;;-141.84;62.40
46323;BME280;32044;52.386;13.278;2022-07-06T03:22:13;46282.75;;;-141.84;63.01
46323;BME280;32044;52.386;13.278;2022-07-06T03:24:39;46288.63;;;-141.84;63.48
46323;BME280;32044;52.386;13.278;2022-07-06T03:27:04;46253.44;;;-141.84;63.58
46323;BME280;32044;52.386;13.278;2022-07-06T03:29:29;46296.44;;;-141.84;64.15
46323;BME280;32044;52.386;13.278;2022-07-06T03:31:54;46276.91;;;-141.84;64.28
46323;BME280;32044;52.386;13.278;2022-07-06T03:34:19;46292.53;;;-141.84;64.51
46323;BME280;32044;52.386;13.278;2022-07-06T03:36:44;46265.16;;;-141.84;64.91
46323;BME280;32044;52.386;13.278;2022-07-06T03:39:09;46263.22;;;-141.84;64.80
46323;BME280;32044;52.386;13.278;2022-07-06T03:41:35;46273.00;;;-141.84;65.19
46323;BME280;32044;52.386;13.278;2022-07-06T03:44:00;46308.19;;;-141.84;65.92
46323;BME280;32044;52.386;13.278;2022-07-06T03:46:25;46278.84;;;-141.84;66.00
46323;BME280;32044;52.386;13.278;2022-07-06T03:48:50;46312.09;;;-141.84;65.43
46323;BME280;32044;52.386;13.278;2022-07-06T03:51:15;46280.81;;;-141.84;64.81
46323;BME280;32044;52.386;13.278;2022-07-06T03:53:41;46304.28;;;-141.84;64.59
46323;BME280;32044;52.386;13.278;2022-07-06T03:56:06;46255.41;;;-141.84;64.80
46323;BME280;32044;52.386;13.278;2022-07-06T03:58:50;46286.69;;;-141.84;64.82
46323;BME280;32044;52.386;13.278;2022-07-06T04:01:15;46288.63;;;-141.84;64.77
46323;BME280;32044;52.386;13.278;2022-07-06T04:03:40;46271.03;;;-141.84;64.70
46323;BME280;32044;52.386;13.278;2022-07-06T04:06:05;46261.25;;;-141.84;64.35
46323;BME280;32044;52.386;13.278;2022-07-06T04:08:30;46288.63;;;-141.84;63.31
46323;BME280;32044;52.386;13.278;2022-07-06T04:10:56;46261.25;;;-141.84;63.10
46323;BME280;32044;52.386;13.278;2022-07-06T04:13:21;46292.53;;;-141.84;62.86
46323;BME280;32044;52.386;13.278;2022-07-06T04:15:46;46263.22;;;-141.84;62.28
46323;BME280;32044;52.386;13.278;2022-07-06T04:18:11;46300.38;;;-141.84;61.72
46323;BME280;32044;52.386;13.278;2022-07-06T04:20:36;46294.50;;;-141.84;60.88
46323;BME280;32044;52.386;13.278;2022-07-06T04:23:02;46319.91;;;-141.84;60.97
46323;BME280;32044;52.386;13.278;2022-07-06T04:25:27;46292.53;;;-141.84;61.30
46323;BME280;32044;52.386;13.278;2022-07-06T04:27:52;46265.16;;;-141.84;61.16
46323;BME280;32044;52.386;13.278;2022-07-06T04:30:18;46300.38;;;-141.84;60.85
46323;BME280;32044;52.386;13.278;2022-07-06T04:32:43;46292.53;;;-141.84;60.52
46323;BME280;32044;52.386;13.278;2022-07-06T04:35:08;46288.63;;;-141.84;60.57
46323;BME280;32044;52.386;13.278;2022-07-06T04:37:33;46286.69;;;-141.84;60.77
46323;BME280;32044;52.386;13.278;2022-07-06T04:39:59;46229.97;;;-141.84;60.27
46323;BME280;32044;52.386;13.278;2022-07-06T04:42:24;46314.06;;;-141.84;59.83
46323;BME280;32044;52.386;13.278;2022-07-06T04:44:49;46288.63;;;-141.84;59.48
46323;BME280;32044;52.386;13.278;2022-07-06T04:47:16;46288.63;;;-141.84;58.43
46323;BME280;32044;52.386;13.278;2022-07-06T04:49:41;46308.19;;;-141.84;57.73
46323;BME280;32044;52.386;13.278;2022-07-06T04:52:06;46316.00;;;-141.84;57.50
46323;BME280;32044;52.386;13.278;2022-07-06T04:54:32;46284.72;;;-141.84;57.43
46323;BME280;32044;52.386;13.278;2022-07-06T04:56:58;46300.38;;;-141.84;57.73
46323;BME280;32044;52.386;13.278;2022-07-06T04:59:23;46300.38;;;-141.84;57.84
46323;BME280;32044;52.386;13.278;2022-07-06T05:01:48;46288.63;;;-141.84;57.82
46323;BME280;32044;52.386;13.278;2022-07-06T05:04:13;46292.53;;;-141.84;57.74
46323;BME280;32044;52.386;13.278;2022-07-06T05:06:38;46282.75;;;-141.84;57.03
46323;BME280;32044;52.386;13.278;2022-07-06T05:09:04;46284.72;;;-141.84;57.18
46323;BME280;32044;52.386;13.278;2022-07-06T05:11:29;46292.53;;;-141.84;57.28
46323;BME280;32044;52.386;13.278;2022-07-06T05:13:55;46310.13;;;-141.84;56.51
46323;BME280;32044;52.386;13.278;2022-07-06T05:16:20;46300.38;;;-141.84;56.75
46323;BME280;32044;52.386;13.278;2022-07-06T05:18:45;46296.44;;;-141.84;55.96
46323;BME280;32044;52.386;13.278;2022-07-06T05:21:11;46273.00;;;-141.84;56.43
46323;BME280;32044;52.386;13.278;2022-07-06T05:23:36;46300.38;;;-141.84;56.07
46323;BME280;32044;52.386;13.278;2022-07-06T05:26:01;46292.53;;;-141.84;55.25
46323;BME280;32044;52.386;13.278;2022-07-06T05:28:26;46306.22;;;-141.84;55.90
46323;BME280;32044;52.386;13.278;2022-07-06T05:30:52;46284.72;;;-141.84;55.34
46323;BME280;32044;52.386;13.278;2022-07-06T05:33:17;46331.66;;;-141.84;55.62
46323;BME280;32044;52.386;13.278;2022-07-06T05:35:42;46300.38;;;-141.84;54.28
46323;BME280;32044;52.386;13.278;2022-07-06T05:38:07;46312.09;;;-141.84;55.24
46323;BME280;32044;52.386;13.278;2022-07-06T05:40:33;46316.00;;;-141.84;54.43
46323;BME280;32044;52.386;13.278;2022-07-06T05:42:58;46288.63;;;-141.84;54.57
46323;BME280;32044;52.386;13.278;2022-07-06T05:45:23;46286.69;;;-141.84;53.45
46323;BME280;32044;52.386;13.278;2022-07-06T05:47:48;46284.72;;;-141.84;53.38
46323;BME280;32044;52.386;13.278;2022-07-06T05:50:32;46276.91;;;-141.84;53.21
46323;BME280;32044;52.386;13.278;2022-07-06T05:52:59;46265.16;;;-141.84;53.58
46323;BME280;32044;52.386;13.278;2022-07-06T05:55:24;46329.69;;;-141.84;52.82
46323;BME280;32044;52.386;13.278;2022-07-06T05:57:49;46312.09;;;-141.84;51.80
46323;BME280;32044;52.386;13.278;2022-07-06T06:00:15;46300.38;;;-141.84;51.58
46323;BME280;32044;52.386;13.278;2022-07-06T06:02:41;46312.09;;;-141.84;52.11
46323;BME280;32044;52.386;13.278;2022-07-06T06:05:07;46292.53;;;-141.84;51.61
46323;BME280;32044;52.386;13.278;2022-07-06T06:07:33;46239.75;;;-141.84;50.89
46323;BME280;32044;52.386;13.278;2022-07-06T06:09:58;46314.06;;;-141.84;51.72
46323;BME280;32044;52.386;13.278;2022-07-06T06:12:24;46292.53;;;-141.84;51.44
46323;BME280;32044;52.386;13.278;2022-07-06T06:14:49;46308.19;;;-141.84;51.46
46323;BME280;32044;52.386;13.278;2022-07-06T06:17:14;46296.44;;;-141.84;51.03
46323;BME280;32044;52.386;13.278;2022-07-06T06:19:39;46261.25;;;-141.84;50.86
46323;BME280;32044;52.386;13.278;2022-07-06T06:22:04;46319.91;;;-141.84;51.05
46323;BME280;32044;52.386;13.278;2022-07-06T06:24:30;46294.50;;;-141.84;51.29
46323;BME280;32044;52.386;13.278;2022-07-06T06:26:55;46276.91;;;-141.84;50.27
46323;BME280;32044;52.386;13.278;2022-07-06T06:29:20;46265.16;;;-141.84;50.02
46323;BME280;32044;52.386;13.278;2022-07-06T06:31:45;46294.50;;;-141.84;50.50
46323;BME280;32044;52.386;13.278;2022-07-06T06:34:10;46296.44;;;-141.84;49.52
46323;BME280;32044;52.386;13.278;2022-07-06T06:36:36;46296.44;;;-141.84;50.07
46323;BME280;32044;52.386;13.278;2022-07-06T06:39:01;46273.00;;;-141.84;50.16
46323;BME280;32044;52.386;13.278;2022-07-06T06:41:27;46267.13;;;-141.84;48.64
46323;BME280;32044;52.386;13.278;2022-07-06T06:43:52;46316.00;;;-141.84;48.54
46323;BME280;32044;52.386;13.278;2022-07-06T06:46:17;46292.53;;;-141.84;48.88
46323;BME280;32044;52.386;13.278;2022-07-06T06:48:43;46267.13;;;-141.84;48.49
46323;BME280;32044;52.386;13.278;2022-07-06T06:51:08;46284.72;;;-141.84;47.10
46323;BME280;32044;52.386;13.278;2022-07-06T06:53:33;46267.13;;;-141.84;47.85
46323;BME280;32044;52.386;13.278;2022-07-06T06:55:58;46271.03;;;-141.84;47.43
46323;BME280;32044;52.386;13.278;2022-07-06T06:58:23;46284.72;;;-141.84;48.23
46323;BME280;32044;52.386;13.278;2022-07-06T07:00:48;46288.63;;;-141.84;48.20
46323;BME280;32044;52.386;13.278;2022-07-06T07:03:13;46314.06;;;-141.84;47.70
46323;BME280;32044;52.386;13.278;2022-07-06T07:05:39;46278.84;;;-141.84;47.06
46323;BME280;32044;52.386;13.278;2022-07-06T07:08:04;46296.44;;;-141.84;47.41
46323;BME280;32044;52.386;13.278;2022-07-06T07:10:29;46327.72;;;-141.84;46.72
46323;BME280;32044;52.386;13.278;2022-07-06T07:12:54;46302.31;;;-141.84;47.06
46323;BME280;32044;52.386;13.278;2022-07-06T07:15:20;46296.44;;;-141.84;46.32
46323;BME280;32044;52.386;13.278;2022-07-06T07:17:45;46269.09;;;-141.84;47.49
46323;BME280;32044;52.386;13.278;2022-07-06T07:20:10;46286.69;;;-141.84;46.04
46323;BME280;32044;52.386;13.278;2022-07-06T07:22:36;46284.72;;;-141.84;45.84
46323;BME280;32044;52.386;13.278;2022-07-06T07:25:01;46288.63;;;-141.84;45.36
46323;BME280;32044;52.386;13.278;2022-07-06T07:27:26;46271.03;;;-141.84;45.48
46323;BME280;32044;52.386;13.278;2022-07-06T07:29:51;46292.53;;;-141.84;45.80
46323;BME280;32044;52.386;13.278;2022-07-06T07:32:18;46257.34;;;-141.84;45.69
46323;BME280;32044;52.386;13.278;2022-07-06T07:34:43;46284.72;;;-141.84;44.24
46323;BME280;32044;52.386;13.278;2022-07-06T07:37:08;46274.94;;;-141.84;44.58
46323;BME280;32044;52.386;13.278;2022-07-06T07:39:33;46343.38;;;-141.84;44.81
46323;BME280;32044;52.386;13.278;2022-07-06T07:41:58;46300.38;;;-141.84;45.25
46323;BME280;32044;52.386;13.278;2022-07-06T07:44:24;46296.44;;;-141.84;44.15
46323;BME280;32044;52.386;13.278;2022-07-06T07:46:49;46243.66;;;-141.84;44.17
46323;BME280;32044;52.386;13.278;2022-07-06T07:49:15;46269.09;;;-141.84;44.26
46323;BME280;32044;52.386;13.278;2022-07-06T07:51:40;46261.25;;;-141.84;42.91
46323;BME280;32044;52.386;13.278;2022-07-06T07:54:06;46288.63;;;-141.84;41.94
46323;BME280;32044;52.386;13.278;2022-07-06T07:56:31;46259.31;;;-141.84;41.29
46323;BME280;32044;52.386;13.278;2022-07-06T07:58:56;46280.81;;;-141.84;40.37
46323;BME280;32044;52.386;13.278;2022-07-06T08:01:22;46298.41;;;-141.84;40.71
46323;BME280;32044;52.386;13.278;2022-07-06T08:03:47;46284.72;;;-141.84;41.67
46323;BME280;32044;52.386;13.278;2022-07-06T08:06:12;46300.38;;;-141.84;41.35
46323;BME280;32044;52.386;13.278;2022-07-06T08:08:37;46261.25;;;-141.84;41.17
46323;BME280;32044;52.386;13.278;2022-07-06T08:11:02;46294.50;;;-141.84;40.70
46323;BME280;32044;52.386;13.278;2022-07-06T08:13:27;46280.81;;;-141.84;39.80
46323;BME280;32044;52.386;13.278;2022-07-06T08:15:53;46288.63;;;-141.84;40.43
46323;BME280;32044;52.386;13.278;2022-07-06T08:18:18;46269.09;;;-141.84;41.56
46323;BME280;32044;52.386;13.278;2022-07-06T08:20:43;46271.03;;;-141.84;41.45
46323;BME280;32044;52.386;13.278;2022-07-06T08:23:08;46280.81;;;-141.84;40.71
46323;BME280;32044;52.386;13.278;2022-07-06T08:25:33;46261.25;;;-141.84;40.56
46323;BME280;32044;52.386;13.278;2022-07-06T08:27:58;46233.88;;;-141.84;39.43
46323;BME280;32044;52.386;13.278;2022-07-06T08:30:24;46308.19;;;-141.84;39.34
46323;BME280;32044;52.386;13.278;2022-07-06T08:32:49;46280.81;;;-141.84;40.03
46323;BME280;32044;52.386;13.278;2022-07-06T08:35:14;46273.00;;;-141.84;39.11
46323;BME280;32044;52.386;13.278;2022-07-06T08:37:39;46274.94;;;-141.84;40.15
46323;BME280;32044;52.386;13.278;2022-07-06T08:40:05;46284.72;;;-141.84;40.06
46323;BME280;32044;52.386;13.278;2022-07-06T08:42:31;46316.00;;;-141.84;40.08
46323;BME280;32044;52.386;13.278;2022-07-06T08:45:01;46286.69;;;-141.84;40.02
46323;BME280;32044;52.386;13.278;2022-07-06T08:47:27;46280.81;;;-141.84;40.43
46323;BME280;32044;52.386;13.278;2022-07-06T08:49:52;46276.91;;;-141.84;39.84
46323;BME280;32044;52.386;13.278;2022-07-06T08:52:18;46263.22;;;-141.84;39.68
46323;BME280;32044;52.386;13.278;2022-07-06T08:54:43;46284.72;;;-141.84;39.44
46323;BME280;32044;52.386;13.278;2022-07-06T08:57:08;46300.38;;;-141.84;39.16
46323;BME280;32044;52.386;13.278;2022-07-06T08:59:33;46274.94;;;-141.84;39.69
46323;BME280;32044;52.386;13.278;2022-07-06T09:01:59;46300.38;;;-141.84;39.32
46323;BME280;32044;52.386;13.278;2022-07-06T09:04:25;46269.09;;;-141.84;39.73
46323;BME280;32044;52.386;13.278;2022-07-06T09:06:50;46280.81;;;-141.84;40.45
46323;BME280;32044;52.386;13.278;2022-07-06T09:09:20;46300.38;;;-141.84;40.68
46323;BME280;32044;52.386;13.278;2022-07-06T09:11:46;46276.91;;;-141.84;40.79
46323;BME280;32044;52.386;13.278;2022-07-06T09:14:11;46280.81;;;-141.84;41.16
46323;BME280;32044;52.386;13.278;2022-07-06T09:16:36;46257.34;;;-141.84;39.85
46323;BME280;32044;52.386;13.278;2022-07-06T09:19:02;46273.00;;;-141.84;39.48
46323;BME280;32044;52.386;13.278;2022-07-06T09:21:28;46265.16;;;-141.84;38.81
46323;BME280;32044;52.386;13.278;2022-07-06T09:23:56;46276.91;;;-141.84;39.41
46323;BME280;32044;52.386;13.278;2022-07-06T09:26:22;46284.72;;;-141.84;38.39
46323;BME280;32044;52.386;13.278;2022-07-06T09:28:47;46286.69;;;-141.84;39.26
46323;BME280;32044;52.386;13.278;2022-07-06T09:31:12;46229.97;;;-141.84;38.58
46323;BME280;32044;52.386;13.278;2022-07-06T09:33:37;46273.00;;;-141.84;38.31
46323;BME280;32044;52.386;13.278;2022-07-06T09:36:03;46253.44;;;-141.84;37.80
46323;BME280;32044;52.386;13.278;2022-07-06T09:38:28;46288.63;;;-141.84;37.39
46323;BME280;32044;52.386;13.278;2022-07-06T09:40:54;46253.44;;;-141.84;37.58
46323;BME280;32044;52.386;13.278;2022-07-06T09:43:20;46271.03;;;-141.84;36.98
46323;BME280;32044;52.386;13.278;2022-07-06T09:45:47;46231.94;;;-141.84;36.79
46323;BME280;32044;52.386;13.278;2022-07-06T09:48:14;46278.84;;;-141.84;36.04
46323;BME280;32044;52.386;13.278;2022-07-06T09:50:41;46265.16;;;-141.84;36.62
46323;BME280;32044;52.386;13.278;2022-07-06T09:53:07;46269.09;;;-141.84;37.22
46323;BME280;32044;52.386;13.278;2022-07-06T09:55:32;46292.53;;;-141.84;36.09
46323;BME280;32044;52.386;13.278;2022-07-06T09:57:57;46296.44;;;-141.84;36.61
46323;BME280;32044;52.386;13.278;2022-07-06T10:00:22;46261.25;;;-141.84;36.42
46323;BME280;32044;52.386;13.278;2022-07-06T10:02:47;46302.31;;;-141.84;34.04
46323;BME280;32044;52.386;13.278;2022-07-06T10:05:15;46290.59;;;-141.84;34.20
46323;BME280;32044;52.386;13.278;2022-07-06T10:07:41;46278.84;;;-141.84;34.24
46323;BME280;32044;52.386;13.278;2022-07-06T10:10:06;46271.03;;;-141.84;34.78
46323;BME280;32044;52.386;13.278;2022-07-06T10:12:32;46253.44;;;-141.84;34.08
46323;BME280;32044;52.386;13.278;2022-07-06T10:14:57;46280.81;;;-141.84;33.89
46323;BME280;32044;52.386;13.278;2022-07-06T10:17:23;46241.72;;;-141.84;33.96
46323;BME280;32044;52.386;13.278;2022-07-06T10:19:49;46259.31;;;-141.84;34.15
46323;BME280;32044;52.386;13.278;2022-07-06T10:22:15;46224.09;;;-141.84;34.77
46323;BME280;32044;52.386;13.278;2022-07-06T10:24:40;46253.44;;;-141.84;34.79
46323;BME280;32044;52.386;13.278;2022-07-06T10:27:08;46276.91;;;-141.84;35.06
46323;BME280;32044;52.386;13.278;2022-07-06T10:29:35;46226.06;;;-141.84;34.05
46323;BME280;32044;52.386;13.278;2022-07-06T10:32:00;46263.22;;;-141.84;33.61
46323;BME280;32044;52.386;13.278;2022-07-06T10:34:25;46253.44;;;-141.84;33.23
46323;BME280;32044;52.386;13.278;2022-07-06T10:36:51;46284.72;;;-141.84;33.86
46323;BME280;32044;52.386;13.278;2022-07-06T10:39:16;46273.00;;;-141.84;34.60
46323;BME280;32044;52.386;13.278;2022-07-06T10:44:58;46280.81;;;-141.84;35.27
46323;BME280;32044;52.386;13.278;2022-07-06T10:47:26;46288.63;;;-141.84;35.24
46323;BME280;32044;52.386;13.278;2022-07-06T10:49:52;46241.72;;;-141.84;35.96
46323;BME280;32044;52.386;13.278;2022-07-06T10:52:23;46247.56;;;-141.84;35.35
46323;BME280;32044;52.386;13.278;2022-07-06T10:54:48;46261.25;;;-141.84;34.85
46323;BME280;32044;52.386;13.278;2022-07-06T10:57:14;46251.47;;;-141.84;34.10
46323;BME280;32044;52.386;13.278;2022-07-06T11:00:00;46253.44;;;-141.84;33.29
46323;BME280;32044;52.386;13.278;2022-07-06T11:02:25;46282.75;;;-141.84;33.14
46323;BME280;32044;52.386;13.278;2022-07-06T11:04:50;46226.06;;;-141.84;33.84
46323;BME280;32044;52.386;13.278;2022-07-06T11:07:16;46300.38;;;-141.84;33.64
46323;BME280;32044;52.386;13.278;2022-07-06T11:09:42;46276.91;;;-141.84;33.59
46323;BME280;32044;52.386;13.278;2022-07-06T11:12:18;46286.69;;;-141.84;33.56
46323;BME280;32044;52.386;13.278;2022-07-06T11:14:45;46257.34;;;-141.84;34.19
46323;BME280;32044;52.386;13.278;2022-07-06T11:17:11;46249.53;;;-141.84;34.42
46323;BME280;32044;52.386;13.278;2022-07-06T11:19:37;46290.59;;;-141.84;34.67
46323;BME280;32044;52.386;13.278;2022-07-06T11:22:06;46239.75;;;-141.84;34.47
46323;BME280;32044;52.386;13.278;2022-07-06T11:24:32;46273.00;;;-141.84;35.03
46323;BME280;32044;52.386;13.278;2022-07-06T11:26:58;46304.28;;;-141.84;35.33
46323;BME280;32044;52.386;13.278;2022-07-06T11:29:24;46280.81;;;-141.84;35.93
46323;BME280;32044;52.386;13.278;2022-07-06T11:31:50;46235.84;;;-141.84;36.05
46323;BME280;32044;52.386;13.278;2022-07-06T11:34:28;46257.34;;;-141.84;35.32
46323;BME280;32044;52.386;13.278;2022-07-06T11:37:01;46273.00;;;-141.84;35.90
46323;BME280;32044;52.386;13.278;2022-07-06T11:39:27;46253.44;;;-141.84;35.63
46323;BME280;32044;52.386;13.278;2022-07-06T11:41:53;46280.81;;;-141.84;35.13
46323;BME280;32044;52.386;13.278;2022-07-06T11:44:19;46269.09;;;-141.84;34.59
46323;BME280;32044;52.386;13.278;2022-07-06T11:46:44;46273.00;;;-141.84;33.95
46323;BME280;32044;52.386;13.278;2022-07-06T11:49:09;46282.75;;;-141.84;33.26
46323;BME280;32044;52.386;13.278;2022-07-06T11:51:35;46276.91;;;-141.84;33.33
46323;BME280;32044;52.386;13.278;2022-07-06T11:54:06;46284.72;;;-141.84;33.66
46323;BME280;32044;52.386;13.278;2022-07-06T11:56:32;46269.09;;;-141.84;34.07
46323;BME280;32044;52.386;13.278;2022-07-06T11:58:58;46273.00;;;-141.84;34.57
46323;BME280;32044;52.386;13.278;2022-07-06T12:01:24;46253.44;;;-141.84;34.63
46323;BME280;32044;52.386;13.278;2022-07-06T12:03:51;46292.53;;;-141.84;34.48
46323;BME280;32044;52.386;13.278;2022-07-06T12:06:23;46257.34;;;-141.84;35.70
46323;BME280;32044;52.386;13.278;2022-07-06T12:08:53;46241.72;;;-141.84;36.27
46323;BME280;32044;52.386;13.278;2022-07-06T12:11:25;46263.22;;;-141.84;36.11
46323;BME280;32044;52.386;13.278;2022-07-06T12:13:51;46294.50;;;-141.84;35.73
46323;BME280;32044;52.386;13.278;2022-07-06T12:16:17;46290.59;;;-141.84;35.57
46323;BME280;32044;52.386;13.278;2022-07-06T12:18:43;46292.53;;;-141.84;35.09
46323;BME280;32044;52.386;13.278;2022-07-06T12:21:16;46286.69;;;-141.84;35.42
46323;BME280;32044;52.386;13.278;2022-07-06T12:23:47;46280.81;;;-141.84;35.57
46323;BME280;32044;52.386;13.278;2022-07-06T12:26:13;46273.00;;;-141.84;35.16